Time;durP1;ratioP1;P1;durP2;ratioP2;P2;SDS_P1;SDS_P2;PMS_P1;PMS_P2;Temp;Humidity;BMP_temperature;BMP_pressure;BME280_temperature;BME280_humidity;BME280_pressure;Samples;Min_cycle;Max_cycle;Signal;HPM_P1;HPM_P2
2023/08/06 00:00:22;;;;;;;19.90;15.10;;;22.10;99.90;;;;;;5055322;28;20468;-53
2023/08/06 00:02:49;;;;;;;21.00;16.67;;;22.10;99.90;;;;;;5056740;28;20982;-51
2023/08/06 00:05:17;;;;;;;20.70;16.90;;;22.00;99.90;;;;;;5063701;28;20476;-54
2023/08/06 00:07:44;;;;;;;23.07;15.73;;;22.10;99.90;;;;;;5058182;28;20469;-51
2023/08/06 00:10:11;;;;;;;20.90;16.03;;;22.00;99.90;;;;;;5055456;28;20463;-56
2023/08/06 00:12:39;;;;;;;19.70;15.30;;;22.10;99.90;;;;;;5057839;28;20469;-53
2023/08/06 00:15:07;;;;;;;21.70;17.40;;;22.00;99.90;;;;;;5051185;28;20951;-55
2023/08/06 00:17:35;;;;;;;23.20;17.90;;;22.00;99.90;;;;;;5055870;28;21886;-51
2023/08/06 00:20:04;;;;;;;20.40;15.50;;;22.00;99.90;;;;;;5053636;28;20460;-57
2023/08/06 00:22:31;;;;;;;19.77;15.83;;;22.00;99.90;;;;;;5055375;28;20464;-55
2023/08/06 00:24:58;;;;;;;22.90;17.77;;;22.00;99.90;;;;;;5054143;28;20461;-53
2023/08/06 00:27:25;;;;;;;21.53;15.80;;;22.00;99.90;;;;;;5054404;28;20581;-49
2023/08/06 00:29:53;;;;;;;20.27;15.50;;;22.00;99.90;;;;;;5054997;28;20476;-51
2023/08/06 00:32:20;;;;;;;19.67;15.80;;;22.00;99.90;;;;;;5057031;28;20463;-52
2023/08/06 00:34:49;;;;;;;23.07;15.87;;;22.00;99.90;;;;;;5065014;28;20460;-53
2023/08/06 00:37:16;;;;;;;19.43;16.37;;;22.00;99.90;;;;;;5060700;28;20714;-53
2023/08/06 00:39:42;;;;;;;19.20;15.70;;;22.00;99.90;;;;;;5057463;28;21092;-52
2023/08/06 00:42:09;;;;;;;21.60;15.20;;;22.00;99.90;;;;;;5055728;28;20463;-54
2023/08/06 00:44:36;;;;;;;21.00;15.60;;;22.00;99.90;;;;;;5055769;28;20457;-53
2023/08/06 00:47:05;;;;;;;19.77;14.50;;;22.00;99.90;;;;;;5056918;28;20472;-53
2023/08/06 00:49:32;;;;;;;18.90;15.03;;;22.00;99.90;;;;;;5056689;28;20456;-55
2023/08/06 00:51:59;;;;;;;19.70;14.20;;;22.00;99.90;;;;;;5056585;28;20460;-49
2023/08/06 00:54:28;;;;;;;22.17;16.00;;;22.00;99.90;;;;;;5056284;28;21179;-55
2023/08/06 00:56:55;;;;;;;19.57;16.13;;;22.00;99.90;;;;;;5053488;28;20495;-48
2023/08/06 00:59:21;;;;;;;20.27;14.73;;;22.00;99.90;;;;;;5055930;28;20459;-53
2023/08/06 01:01:49;;;;;;;19.13;14.10;;;21.90;99.90;;;;;;5057050;28;20470;-52
2023/08/06 01:04:18;;;;;;;16.53;13.43;;;22.00;99.90;;;;;;5056832;28;20463;-53
2023/08/06 01:06:48;;;;;;;19.27;15.50;;;22.00;99.90;;;;;;5057262;28;20468;-53
2023/08/06 01:09:26;;;;;;;19.90;14.93;;;22.00;99.90;;;;;;5061498;28;20460;-53
2023/08/06 01:12:00;;;;;;;18.57;14.30;;;22.00;99.90;;;;;;5049883;28;20696;-47
2023/08/06 01:14:31;;;;;;;18.17;14.23;;;22.00;99.90;;;;;;5059524;28;20471;-51
2023/08/06 01:16:59;;;;;;;19.37;14.43;;;21.90;99.90;;;;;;5054362;28;20486;-51
2023/08/06 01:19:27;;;;;;;19.43;14.23;;;22.00;99.90;;;;;;5057916;28;20467;-50
2023/08/06 01:21:55;;;;;;;15.13;13.63;;;21.90;99.90;;;;;;5059512;28;20466;-52
2023/08/06 01:24:22;;;;;;;17.87;14.87;;;22.00;99.90;;;;;;5057120;28;20467;-52
2023/08/06 01:26:58;;;;;;;16.67;13.73;;;22.00;99.90;;;;;;5054901;28;21001;-52
2023/08/06 01:29:32;;;;;;;19.80;14.90;;;21.90;99.90;;;;;;5059660;28;20456;-54
2023/08/06 01:31:59;;;;;;;18.60;14.03;;;22.00;99.90;;;;;;5057432;28;20503;-51
2023/08/06 01:34:29;;;;;;;17.43;13.47;;;21.90;99.90;;;;;;5061641;28;20964;-56
2023/08/06 01:36:58;;;;;;;17.47;14.30;;;21.90;99.90;;;;;;5058469;28;20551;-51
2023/08/06 01:39:25;;;;;;;15.67;13.03;;;21.90;99.90;;;;;;5066115;28;20456;-57
2023/08/06 01:41:52;;;;;;;19.13;13.70;;;21.90;99.90;;;;;;5065129;28;20516;-51
2023/08/06 01:44:19;;;;;;;15.40;13.37;;;21.90;99.90;;;;;;5057160;28;20471;-50
2023/08/06 01:46:45;;;;;;;15.47;12.73;;;21.90;99.90;;;;;;5058029;28;21122;-55
2023/08/06 01:49:12;;;;;;;17.70;13.40;;;21.90;99.90;;;;;;5059383;28;20474;-52
2023/08/06 01:51:39;;;;;;;16.70;14.13;;;21.90;99.90;;;;;;5061346;28;20638;-47
2023/08/06 01:54:07;;;;;;;16.50;13.10;;;21.90;99.90;;;;;;5059629;28;20460;-53
2023/08/06 01:56:33;;;;;;;17.70;12.90;;;21.90;99.90;;;;;;5058163;28;21076;-48
2023/08/06 01:59:00;;;;;;;16.50;13.20;;;21.90;99.90;;;;;;5055493;28;20457;-52
2023/08/06 02:01:27;;;;;;;16.27;13.10;;;21.90;99.90;;;;;;5059992;28;20969;-52
2023/08/06 02:03:53;;;;;;;16.93;13.87;;;21.90;99.90;;;;;;5058748;28;20877;-57
2023/08/06 02:06:20;;;;;;;16.60;13.47;;;21.90;99.90;;;;;;5060590;28;20471;-52
2023/08/06 02:08:47;;;;;;;16.87;13.20;;;21.90;99.90;;;;;;5060953;28;20448;-51
2023/08/06 02:11:15;;;;;;;16.23;13.50;;;21.90;99.90;;;;;;5060941;28;20470;-55
2023/08/06 02:13:41;;;;;;;15.90;12.67;;;21.90;99.90;;;;;;5062013;28;21042;-53
2023/08/06 02:16:09;;;;;;;17.00;13.70;;;21.90;99.90;;;;;;5064435;28;20987;-58
2023/08/06 02:18:35;;;;;;;18.27;13.70;;;21.90;99.90;;;;;;5060082;28;21108;-55
2023/08/06 02:21:02;;;;;;;18.70;14.40;;;21.90;99.90;;;;;;5064946;28;21178;-57
2023/08/06 02:23:29;;;;;;;15.10;12.93;;;21.90;99.90;;;;;;5068776;28;20462;-52
2023/08/06 02:26:00;;;;;;;16.53;13.27;;;21.90;99.90;;;;;;5073925;28;20464;-51
2023/08/06 02:28:29;;;;;;;14.23;12.40;;;21.90;99.90;;;;;;5063508;28;20850;-57
2023/08/06 02:30:55;;;;;;;15.90;11.77;;;21.90;99.90;;;;;;5059773;28;20475;-55
2023/08/06 02:33:22;;;;;;;15.43;13.07;;;21.90;99.90;;;;;;5058462;28;21684;-57
2023/08/06 02:35:49;;;;;;;14.50;12.20;;;21.80;99.90;;;;;;5064985;28;20867;-53
2023/08/06 02:38:16;;;;;;;17.87;13.53;;;21.90;99.90;;;;;;5068854;28;20492;-54
2023/08/06 02:40:46;;;;;;;14.93;13.10;;;21.90;99.90;;;;;;5063109;28;20472;-57
2023/08/06 02:43:12;;;;;;;15.60;12.43;;;21.80;99.90;;;;;;5062032;28;20901;-53
2023/08/06 02:45:41;;;;;;;14.43;12.50;;;21.80;99.90;;;;;;5054802;28;20468;-52
2023/08/06 02:48:07;;;;;;;16.33;12.90;;;21.90;99.90;;;;;;5058988;28;20816;-50
2023/08/06 02:50:40;;;;;;;15.53;12.37;;;21.80;99.90;;;;;;5060260;28;20950;-49
2023/08/06 02:53:06;;;;;;;17.87;13.07;;;21.80;99.90;;;;;;5060179;28;20555;-53
2023/08/06 02:55:34;;;;;;;15.97;12.80;;;21.90;99.90;;;;;;5049477;28;20469;-52
2023/08/06 02:58:01;;;;;;;15.93;13.00;;;21.80;99.90;;;;;;5061271;28;20926;-55
2023/08/06 03:00:28;;;;;;;13.63;11.50;;;21.90;99.90;;;;;;5058382;28;20460;-52
2023/08/06 03:02:56;;;;;;;18.03;12.33;;;21.80;99.90;;;;;;5058403;28;21161;-51
2023/08/06 03:05:22;;;;;;;15.10;12.20;;;21.80;99.90;;;;;;5062779;28;20551;-53
2023/08/06 03:07:49;;;;;;;18.23;12.87;;;21.80;99.90;;;;;;5063706;28;20460;-50
2023/08/06 03:10:16;;;;;;;14.60;12.37;;;21.80;99.90;;;;;;5064269;28;20946;-57
2023/08/06 03:12:42;;;;;;;13.73;10.93;;;21.80;99.90;;;;;;5062007;28;20467;-56
2023/08/06 03:15:10;;;;;;;15.30;12.30;;;21.80;99.90;;;;;;5063126;28;20460;-52
2023/08/06 03:17:37;;;;;;;15.13;12.70;;;21.80;99.90;;;;;;5069757;28;20480;-56
2023/08/06 03:20:06;;;;;;;16.53;13.10;;;21.80;99.90;;;;;;5068922;28;20842;-50
2023/08/06 03:22:33;;;;;;;14.20;11.63;;;21.80;99.90;;;;;;5064194;28;20839;-53
2023/08/06 03:24:59;;;;;;;15.43;12.73;;;21.80;99.90;;;;;;5060168;28;20468;-53
2023/08/06 03:27:26;;;;;;;14.50;11.73;;;21.80;99.90;;;;;;5062725;28;20463;-52
2023/08/06 03:29:53;;;;;;;13.20;11.73;;;21.80;99.90;;;;;;5064221;28;20825;-55
2023/08/06 03:32:19;;;;;;;14.03;11.87;;;21.80;99.90;;;;;;5066075;28;20457;-56
2023/08/06 03:34:46;;;;;;;18.40;12.30;;;21.80;99.90;;;;;;5065108;28;20459;-52
2023/08/06 03:37:14;;;;;;;13.90;12.40;;;21.80;99.90;;;;;;5060186;28;20480;-52
2023/08/06 03:39:41;;;;;;;14.00;11.60;;;21.80;99.90;;;;;;5060099;28;20471;-58
2023/08/06 03:42:08;;;;;;;12.03;10.10;;;21.80;99.90;;;;;;5060322;28;20546;-55
2023/08/06 03:44:34;;;;;;;12.67;11.20;;;21.80;99.90;;;;;;5063437;28;21196;-50
2023/08/06 03:47:01;;;;;;;12.67;10.57;;;21.80;99.90;;;;;;5064327;28;20914;-50
2023/08/06 03:49:28;;;;;;;14.17;12.40;;;21.80;99.90;;;;;;5059278;28;20457;-51
2023/08/06 03:51:55;;;;;;;13.30;11.20;;;21.80;99.90;;;;;;5063667;28;20467;-52
2023/08/06 03:54:23;;;;;;;13.07;11.67;;;21.80;99.90;;;;;;5060617;28;20594;-52
2023/08/06 03:56:49;;;;;;;14.50;12.40;;;21.80;99.90;;;;;;5062185;28;21049;-57
2023/08/06 03:59:16;;;;;;;15.10;12.30;;;21.80;99.90;;;;;;5063467;28;20464;-51
2023/08/06 04:01:43;;;;;;;15.80;11.47;;;21.80;99.90;;;;;;5061391;28;20459;-51
2023/08/06 04:04:09;;;;;;;14.87;10.73;;;21.80;99.90;;;;;;5063090;28;20463;-57
2023/08/06 04:06:36;;;;;;;12.87;10.40;;;21.80;99.90;;;;;;5063166;28;20456;-53
2023/08/06 04:09:03;;;;;;;16.00;11.57;;;21.70;99.90;;;;;;5057008;28;20467;-49
2023/08/06 04:11:31;;;;;;;14.60;10.37;;;21.70;99.90;;;;;;5053063;28;20884;-47
2023/08/06 04:13:58;;;;;;;16.13;11.93;;;21.70;99.90;;;;;;5056844;28;20448;-53
2023/08/06 04:16:26;;;;;;;12.13;9.90;;;21.70;99.90;;;;;;5055706;28;20472;-52
2023/08/06 04:18:53;;;;;;;15.67;11.60;;;21.80;99.90;;;;;;5055941;28;20490;-55
2023/08/06 04:21:20;;;;;;;13.23;10.60;;;21.80;99.90;;;;;;5056810;28;20487;-57
2023/08/06 04:23:46;;;;;;;12.10;10.40;;;21.70;99.90;;;;;;5056294;28;20448;-57
2023/08/06 04:26:13;;;;;;;13.80;11.20;;;21.70;99.90;;;;;;5053218;28;20932;-54
2023/08/06 04:28:41;;;;;;;12.03;10.40;;;21.70;99.90;;;;;;5059572;28;20486;-51
2023/08/06 04:31:08;;;;;;;13.37;10.60;;;21.70;99.90;;;;;;5055519;28;20451;-53
2023/08/06 04:33:34;;;;;;;14.13;11.60;;;21.70;99.90;;;;;;5057555;28;20539;-55
2023/08/06 04:36:01;;;;;;;12.53;10.17;;;21.70;99.90;;;;;;5056028;28;20456;-48
2023/08/06 04:38:28;;;;;;;12.90;9.60;;;21.70;99.90;;;;;;5056455;28;20566;-53
2023/08/06 04:40:54;;;;;;;11.07;9.90;;;21.70;99.90;;;;;;5056119;28;20453;-52
2023/08/06 04:43:21;;;;;;;13.83;11.63;;;21.70;99.90;;;;;;5057638;28;20982;-50
2023/08/06 04:45:50;;;;;;;11.73;10.27;;;21.70;99.90;;;;;;5055415;28;20469;-56
2023/08/06 04:48:17;;;;;;;13.00;10.90;;;21.70;99.90;;;;;;5056772;28;20466;-49
2023/08/06 04:50:47;;;;;;;12.73;10.37;;;21.70;99.90;;;;;;5056053;28;20467;-49
2023/08/06 04:53:14;;;;;;;12.73;9.90;;;21.70;99.90;;;;;;5058587;28;20526;-51
2023/08/06 04:55:40;;;;;;;11.47;10.27;;;21.70;99.90;;;;;;5053298;28;20728;-58
2023/08/06 04:58:07;;;;;;;14.00;11.00;;;21.70;99.90;;;;;;5058332;28;20472;-50
2023/08/06 05:00:34;;;;;;;13.17;11.03;;;21.70;99.90;;;;;;5057061;28;20453;-51
2023/08/06 05:03:02;;;;;;;10.77;9.63;;;21.70;99.90;;;;;;5057042;28;20470;-55
2023/08/06 05:05:29;;;;;;;14.57;11.43;;;21.70;99.90;;;;;;5060535;28;20472;-53
2023/08/06 05:07:58;;;;;;;13.77;10.73;;;21.70;99.90;;;;;;5058910;28;20460;-52
2023/08/06 05:10:26;;;;;;;12.20;10.23;;;21.70;99.90;;;;;;5054711;28;20812;-50
2023/08/06 05:12:52;;;;;;;10.33;9.30;;;21.70;99.90;;;;;;5062299;28;20479;-55
2023/08/06 05:15:19;;;;;;;13.17;10.80;;;21.70;99.90;;;;;;5062251;28;20455;-54
2023/08/06 05:17:46;;;;;;;10.60;9.50;;;21.70;99.90;;;;;;5070077;28;20873;-54
2023/08/06 05:20:14;;;;;;;12.00;9.60;;;21.70;99.90;;;;;;5060371;28;20542;-54
2023/08/06 05:22:41;;;;;;;10.77;9.67;;;21.70;99.90;;;;;;5065085;28;21758;-54
2023/08/06 05:25:08;;;;;;;13.03;10.60;;;21.70;99.90;;;;;;5062498;28;20464;-54
2023/08/06 05:27:35;;;;;;;10.67;9.63;;;21.70;99.90;;;;;;5057873;28;20451;-55
2023/08/06 05:30:02;;;;;;;10.90;9.70;;;21.70;99.90;;;;;;5060412;28;21032;-55
2023/08/06 05:32:28;;;;;;;12.27;10.73;;;21.70;99.90;;;;;;5057757;28;20457;-52
2023/08/06 05:34:55;;;;;;;12.30;10.60;;;21.70;99.90;;;;;;5066700;28;20468;-55
2023/08/06 05:37:23;;;;;;;11.53;9.60;;;21.70;99.90;;;;;;5057056;28;21426;-47
2023/08/06 05:39:50;;;;;;;12.00;10.00;;;21.70;99.90;;;;;;5052711;28;20675;-49
2023/08/06 05:42:17;;;;;;;13.30;9.97;;;21.70;99.90;;;;;;5055599;28;20464;-52
2023/08/06 05:44:44;;;;;;;10.30;9.20;;;21.60;99.90;;;;;;5057765;28;20833;-49
2023/08/06 05:47:10;;;;;;;10.90;9.80;;;21.70;99.90;;;;;;5055651;28;20863;-50
2023/08/06 05:49:37;;;;;;;11.70;8.90;;;21.60;99.90;;;;;;5065540;28;20459;-47
2023/08/06 05:52:06;;;;;;;9.07;8.17;;;21.60;99.90;;;;;;5057605;28;20465;-51
2023/08/06 05:54:34;;;;;;;10.67;8.23;;;21.70;99.90;;;;;;5058696;28;20804;-51
2023/08/06 05:57:00;;;;;;;9.77;8.70;;;21.60;99.90;;;;;;5053782;28;20483;-53
2023/08/06 05:59:27;;;;;;;11.50;9.93;;;21.60;99.90;;;;;;5055517;28;20488;-55
2023/08/06 06:01:54;;;;;;;11.00;9.10;;;21.60;99.90;;;;;;5057151;28;20460;-50
2023/08/06 06:04:21;;;;;;;10.30;8.83;;;21.70;99.90;;;;;;5055550;28;20471;-54
2023/08/06 06:06:47;;;;;;;9.70;8.70;;;21.60;99.90;;;;;;5054766;28;20973;-54
2023/08/06 06:09:14;;;;;;;10.50;8.73;;;21.60;99.90;;;;;;5054090;28;20464;-50
2023/08/06 06:11:42;;;;;;;9.43;8.00;;;21.70;99.90;;;;;;5062013;28;20459;-53
2023/08/06 06:14:09;;;;;;;10.57;8.17;;;21.60;99.90;;;;;;5056426;28;20871;-55
2023/08/06 06:16:35;;;;;;;9.77;8.47;;;21.60;99.90;;;;;;5062181;28;20466;-47
2023/08/06 06:19:02;;;;;;;9.70;8.30;;;21.70;99.90;;;;;;5067496;28;20485;-51
2023/08/06 06:21:29;;;;;;;10.07;8.63;;;21.60;99.90;;;;;;5060358;28;20459;-54
2023/08/06 06:23:56;;;;;;;10.00;8.80;;;21.60;99.90;;;;;;5055100;28;20464;-53
2023/08/06 06:26:23;;;;;;;10.10;8.90;;;21.60;99.90;;;;;;5060053;28;20456;-55
2023/08/06 06:28:51;;;;;;;10.63;9.43;;;21.60;99.90;;;;;;5060150;28;20471;-55
2023/08/06 06:31:18;;;;;;;9.30;8.30;;;21.60;99.90;;;;;;5058674;28;20455;-55
2023/08/06 06:33:44;;;;;;;10.53;9.23;;;21.60;99.90;;;;;;5064488;28;20468;-52
2023/08/06 06:36:11;;;;;;;8.90;7.90;;;21.60;99.90;;;;;;5061184;28;20962;-54
2023/08/06 06:38:38;;;;;;;9.97;8.97;;;21.60;99.90;;;;;;5063329;28;20654;-52
2023/08/06 06:41:05;;;;;;;9.03;8.20;;;21.60;99.90;;;;;;5059753;28;20494;-57
2023/08/06 06:43:31;;;;;;;8.83;7.93;;;21.60;99.90;;;;;;5060626;28;20802;-49
2023/08/06 06:46:00;;;;;;;9.67;8.67;;;21.60;99.90;;;;;;5060773;28;20449;-52
2023/08/06 06:48:28;;;;;;;10.87;8.53;;;21.60;99.90;;;;;;5063412;28;21728;-51
2023/08/06 06:50:55;;;;;;;9.00;8.07;;;21.60;99.90;;;;;;5061091;28;20448;-55
2023/08/06 06:53:26;;;;;;;8.60;7.63;;;21.60;99.90;;;;;;5061432;28;20455;-56
2023/08/06 06:55:53;;;;;;;9.60;8.70;;;21.60;99.90;;;;;;5061462;28;20543;-49
2023/08/06 06:58:20;;;;;;;9.03;8.00;;;21.60;99.90;;;;;;5060167;28;20967;-50
2023/08/06 07:00:47;;;;;;;10.27;9.27;;;21.60;99.90;;;;;;5061924;28;20463;-53
2023/08/06 07:03:15;;;;;;;9.43;8.20;;;21.60;99.90;;;;;;5061148;28;20464;-54
2023/08/06 07:05:42;;;;;;;10.10;8.60;;;21.60;99.90;;;;;;5058181;28;20958;-51
2023/08/06 07:08:09;;;;;;;11.73;9.50;;;21.60;99.90;;;;;;5060056;28;21261;-55
2023/08/06 07:10:36;;;;;;;10.53;8.53;;;21.60;99.90;;;;;;5063839;28;20456;-54
2023/08/06 07:13:02;;;;;;;10.90;8.60;;;21.60;99.90;;;;;;5057734;28;20451;-50
2023/08/06 07:15:29;;;;;;;10.40;8.30;;;21.60;99.90;;;;;;5056039;28;20459;-57
2023/08/06 07:17:56;;;;;;;10.20;8.00;;;21.60;99.90;;;;;;5060526;28;20931;-50
2023/08/06 07:20:24;;;;;;;11.63;8.30;;;21.60;99.90;;;;;;5059751;28;20457;-54
2023/08/06 07:22:50;;;;;;;9.50;8.60;;;21.60;99.90;;;;;;5060892;28;20454;-53
2023/08/06 07:25:19;;;;;;;11.80;8.27;;;21.60;99.90;;;;;;5054680;28;20569;-54
2023/08/06 07:27:46;;;;;;;7.80;7.10;;;21.60;99.90;;;;;;5065521;28;20502;-55
2023/08/06 07:30:12;;;;;;;7.17;6.47;;;21.60;99.90;;;;;;5061516;28;20460;-54
2023/08/06 07:32:39;;;;;;;9.20;6.80;;;21.60;99.90;;;;;;5069416;28;20456;-57
2023/08/06 07:35:08;;;;;;;5.70;5.17;;;21.60;99.90;;;;;;5065166;28;20796;-51
2023/08/06 07:37:36;;;;;;;11.23;6.43;;;21.60;99.90;;;;;;5058223;28;20924;-47
2023/08/06 07:40:03;;;;;;;5.27;4.30;;;21.60;99.90;;;;;;5052097;28;20475;-56
2023/08/06 07:42:30;;;;;;;5.33;4.37;;;21.60;99.90;;;;;;5056774;28;20457;-55
2023/08/06 07:44:58;;;;;;;4.87;4.30;;;21.60;99.90;;;;;;5054565;28;20956;-50
2023/08/06 07:47:25;;;;;;;4.33;3.93;;;21.60;99.90;;;;;;5052026;28;20463;-50
2023/08/06 07:49:52;;;;;;;5.20;3.77;;;21.60;99.90;;;;;;5059995;28;20475;-57
2023/08/06 07:52:19;;;;;;;3.90;2.87;;;21.60;99.90;;;;;;5064343;28;20562;-48
2023/08/06 07:54:47;;;;;;;6.03;3.67;;;21.60;99.90;;;;;;5057185;28;20464;-56
2023/08/06 07:57:14;;;;;;;3.90;3.43;;;21.60;99.90;;;;;;5054204;28;20553;-57
2023/08/06 07:59:41;;;;;;;5.70;4.40;;;21.60;99.90;;;;;;5057436;28;20554;-50
2023/08/06 08:02:08;;;;;;;5.03;4.10;;;21.60;99.90;;;;;;5062153;28;20460;-54
2023/08/06 08:04:35;;;;;;;5.47;3.30;;;21.60;99.90;;;;;;5062105;28;20472;-52
2023/08/06 08:07:02;;;;;;;3.80;3.40;;;21.60;99.90;;;;;;5062164;28;20461;-55
2023/08/06 08:09:29;;;;;;;4.33;3.20;;;21.60;99.90;;;;;;5060697;28;20470;-55
2023/08/06 08:11:57;;;;;;;3.70;3.20;;;21.60;99.90;;;;;;5058896;28;20822;-54
2023/08/06 08:14:24;;;;;;;4.60;3.70;;;21.60;99.90;;;;;;5055988;28;20670;-55
2023/08/06 08:16:51;;;;;;;3.17;2.90;;;21.60;99.90;;;;;;5056868;28;20466;-52
2023/08/06 08:19:18;;;;;;;3.43;3.10;;;21.60;99.90;;;;;;5061845;28;20489;-48
2023/08/06 08:21:44;;;;;;;3.30;2.80;;;21.60;99.90;;;;;;5060425;28;20456;-51
2023/08/06 08:24:11;;;;;;;5.23;3.00;;;21.60;99.90;;;;;;5059339;28;20465;-57
2023/08/06 08:26:38;;;;;;;6.37;3.47;;;21.60;99.90;;;;;;5062871;28;20468;-49
2023/08/06 08:29:06;;;;;;;6.50;3.57;;;21.60;99.90;;;;;;5057539;28;21050;-55
2023/08/06 08:31:38;;;;;;;4.87;4.00;;;21.70;99.90;;;;;;5060409;28;20465;-56
2023/08/06 08:34:05;;;;;;;5.07;3.13;;;21.70;99.90;;;;;;5061081;28;20519;-48
2023/08/06 08:36:32;;;;;;;7.20;4.00;;;21.60;99.90;;;;;;5062922;28;20456;-50
2023/08/06 08:38:59;;;;;;;3.77;3.40;;;21.60;99.90;;;;;;5063379;28;20984;-52
2023/08/06 08:41:26;;;;;;;4.10;3.17;;;21.60;99.90;;;;;;5064835;28;20447;-53
2023/08/06 08:43:53;;;;;;;3.97;2.93;;;21.60;99.90;;;;;;5063796;28;20471;-56
2023/08/06 08:46:21;;;;;;;7.03;2.70;;;21.60;99.90;;;;;;5054415;28;20492;-54
2023/08/06 08:48:48;;;;;;;3.53;3.23;;;21.60;99.90;;;;;;5064439;28;20452;-55
2023/08/06 08:51:18;;;;;;;3.50;2.90;;;21.60;99.90;;;;;;5062395;28;20469;-49
2023/08/06 08:53:46;;;;;;;3.70;3.33;;;21.60;99.90;;;;;;5063259;28;20464;-52
2023/08/06 08:56:14;;;;;;;4.57;3.30;;;21.70;99.90;;;;;;5054851;28;20463;-51
2023/08/06 08:58:41;;;;;;;3.20;3.00;;;21.70;99.90;;;;;;5054429;28;20542;-51
2023/08/06 09:01:09;;;;;;;3.80;3.13;;;21.70;99.90;;;;;;5050694;28;20456;-51
2023/08/06 09:03:38;;;;;;;5.40;3.00;;;21.70;99.90;;;;;;5049842;28;20457;-50
2023/08/06 09:06:05;;;;;;;5.20;3.10;;;21.60;99.90;;;;;;5056014;28;21054;-56
2023/08/06 09:08:38;;;;;;;2.77;2.33;;;21.70;99.90;;;;;;5054359;28;20452;-52
2023/08/06 09:11:08;;;;;;;4.10;2.37;;;21.60;99.90;;;;;;5056244;28;20488;-57
2023/08/06 09:13:37;;;;;;;4.20;2.80;;;21.70;99.90;;;;;;5055983;28;20457;-54
2023/08/06 09:16:04;;;;;;;3.50;2.70;;;21.60;99.90;;;;;;5048755;28;20458;-54
2023/08/06 09:18:31;;;;;;;4.27;2.90;;;21.70;99.90;;;;;;5061344;28;21530;-53
2023/08/06 09:20:59;;;;;;;3.10;2.43;;;21.60;99.90;;;;;;5055658;28;20462;-53
2023/08/06 09:23:31;;;;;;;3.97;2.57;;;21.70;99.90;;;;;;5057925;28;20491;-59
2023/08/06 09:25:58;;;;;;;4.90;2.53;;;21.70;99.90;;;;;;5057470;28;20814;-49
2023/08/06 09:28:25;;;;;;;3.93;3.03;;;21.70;99.90;;;;;;5061129;28;20468;-54
2023/08/06 09:30:54;;;;;;;3.70;2.70;;;21.70;99.90;;;;;;5059386;28;20469;-60
2023/08/06 09:33:23;;;;;;;4.93;2.70;;;21.70;99.90;;;;;;5056558;28;21028;-51
2023/08/06 09:35:50;;;;;;;3.10;2.80;;;21.70;99.90;;;;;;5056317;28;20481;-54
2023/08/06 09:38:18;;;;;;;6.57;3.63;;;21.70;99.90;;;;;;5057487;28;21050;-60
2023/08/06 09:40:45;;;;;;;5.70;3.10;;;21.70;99.90;;;;;;5055578;28;21440;-59
2023/08/06 09:43:13;;;;;;;3.37;2.70;;;21.70;99.90;;;;;;5059920;28;20464;-52
2023/08/06 09:45:40;;;;;;;6.10;2.90;;;21.70;99.90;;;;;;5059355;28;20518;-61
2023/08/06 09:48:09;;;;;;;4.40;2.57;;;21.70;99.90;;;;;;5061585;28;20460;-58
2023/08/06 09:50:37;;;;;;;11.37;3.20;;;21.70;99.90;;;;;;5063831;28;20459;-58
2023/08/06 09:53:05;;;;;;;2.43;2.23;;;21.70;99.90;;;;;;5066203;28;20864;-59
2023/08/06 09:55:33;;;;;;;4.47;3.00;;;21.70;99.90;;;;;;5065550;28;20462;-51
2023/08/06 09:58:01;;;;;;;4.00;2.90;;;21.70;99.90;;;;;;5063092;28;20495;-61
2023/08/06 10:00:29;;;;;;;3.80;2.70;;;21.70;99.90;;;;;;5059859;28;21091;-59
2023/08/06 10:03:00;;;;;;;2.80;2.60;;;21.70;99.90;;;;;;5062923;28;20449;-58
2023/08/06 10:05:28;;;;;;;4.63;2.50;;;21.70;99.90;;;;;;5062379;28;20468;-54
2023/08/06 10:07:56;;;;;;;5.33;2.20;;;21.70;99.90;;;;;;5063632;28;20460;-58
2023/08/06 10:10:24;;;;;;;4.40;3.13;;;21.70;99.90;;;;;;5065025;28;20464;-60
2023/08/06 10:12:55;;;;;;;7.03;3.10;;;21.70;99.90;;;;;;5066471;28;20465;-61
2023/08/06 10:15:26;;;;;;;2.93;2.67;;;21.70;99.90;;;;;;5062744;28;20542;-65
2023/08/06 10:17:56;;;;;;;3.53;2.13;;;21.70;99.90;;;;;;5068718;28;20971;-54
2023/08/06 10:20:23;;;;;;;7.07;2.63;;;21.70;99.90;;;;;;5065748;28;20480;-59
2023/08/06 10:23:01;;;;;;;4.10;2.80;;;21.70;99.90;;;;;;5065281;28;20464;-57
2023/08/06 10:25:31;;;;;;;3.37;2.63;;;21.70;99.90;;;;;;5064514;28;20456;-53
2023/08/06 10:28:00;;;;;;;3.93;2.73;;;21.70;99.90;;;;;;5062689;28;21065;-64
2023/08/06 10:30:28;;;;;;;3.13;2.83;;;21.70;99.90;;;;;;5066546;28;20468;-60
2023/08/06 10:32:57;;;;;;;3.90;2.67;;;21.70;99.90;;;;;;5066576;28;20461;-55
2023/08/06 10:35:31;;;;;;;3.00;2.70;;;21.70;99.90;;;;;;5065686;28;20467;-59
2023/08/06 10:38:04;;;;;;;2.90;2.70;;;21.70;99.90;;;;;;5064730;28;20957;-52
2023/08/06 10:40:31;;;;;;;5.17;2.87;;;21.70;99.90;;;;;;5065845;28;20484;-58
2023/08/06 10:43:01;;;;;;;6.10;2.60;;;21.70;99.90;;;;;;5069781;28;20470;-57
2023/08/06 10:45:30;;;;;;;4.63;2.47;;;21.70;99.90;;;;;;5068014;28;20452;-54
2023/08/06 10:47:57;;;;;;;2.70;2.50;;;21.70;99.90;;;;;;5067177;28;20459;-55
2023/08/06 10:50:25;;;;;;;2.40;2.23;;;21.70;99.90;;;;;;5068805;28;20555;-58
2023/08/06 10:52:52;;;;;;;3.70;2.30;;;21.70;99.90;;;;;;5068818;28;21279;-59
2023/08/06 10:55:26;;;;;;;10.30;3.10;;;21.70;99.90;;;;;;5071828;28;20467;-58
2023/08/06 10:57:53;;;;;;;3.90;2.67;;;21.70;99.90;;;;;;5060892;28;21050;-64
2023/08/06 11:00:23;;;;;;;2.47;2.27;;;21.70;99.90;;;;;;5060982;28;20494;-53
2023/08/06 11:02:50;;;;;;;2.40;2.00;;;21.70;99.90;;;;;;5072294;28;20556;-61
2023/08/06 11:05:17;;;;;;;3.70;2.63;;;21.70;99.90;;;;;;5071477;28;20471;-59
2023/08/06 11:07:44;;;;;;;3.10;2.80;;;21.70;99.90;;;;;;5072607;28;20557;-64
2023/08/06 11:10:12;;;;;;;3.30;2.40;;;21.70;99.90;;;;;;5071315;28;20472;-64
2023/08/06 11:12:39;;;;;;;2.90;2.70;;;21.70;99.90;;;;;;5068653;28;20464;-58
2023/08/06 11:15:07;;;;;;;2.27;1.83;;;21.70;99.90;;;;;;5067158;28;20456;-62
2023/08/06 11:17:36;;;;;;;2.90;2.30;;;21.70;99.90;;;;;;5070326;28;20452;-56
2023/08/06 11:20:04;;;;;;;2.33;2.13;;;21.70;99.90;;;;;;5066694;28;20982;-58
2023/08/06 11:22:31;;;;;;;2.67;2.40;;;21.70;99.90;;;;;;5071951;28;20448;-57
2023/08/06 11:25:00;;;;;;;3.03;2.73;;;21.70;99.90;;;;;;5065612;28;20457;-56
2023/08/06 11:27:28;;;;;;;5.50;2.50;;;21.70;99.90;;;;;;5069579;28;20492;-58
2023/08/06 11:29:55;;;;;;;2.53;2.33;;;21.70;99.90;;;;;;5067420;28;20465;-57
2023/08/06 11:32:21;;;;;;;3.50;2.60;;;21.70;99.90;;;;;;5070603;28;20464;-56
2023/08/06 11:34:49;;;;;;;3.77;2.40;;;21.70;99.90;;;;;;5066255;28;20915;-60
2023/08/06 11:37:16;;;;;;;4.30;2.90;;;21.70;99.90;;;;;;5068854;28;20460;-53
2023/08/06 11:39:48;;;;;;;2.67;2.03;;;21.70;99.90;;;;;;5065188;28;20524;-53
2023/08/06 11:42:15;;;;;;;2.27;2.07;;;21.70;99.90;;;;;;5063452;28;20479;-53
2023/08/06 11:44:44;;;;;;;2.40;2.20;;;21.70;99.90;;;;;;5065004;28;20471;-55
2023/08/06 11:47:14;;;;;;;6.70;2.47;;;21.70;99.90;;;;;;5068461;28;20552;-55
2023/08/06 11:49:44;;;;;;;3.40;2.30;;;21.70;99.90;;;;;;5066695;28;20460;-58
2023/08/06 11:52:22;;;;;;;2.00;1.90;;;21.70;99.90;;;;;;5069292;28;20836;-51
2023/08/06 11:55:02;;;;;;;2.73;1.77;;;21.70;99.90;;;;;;5061914;28;20467;-62
2023/08/06 11:57:32;;;;;;;2.97;2.07;;;21.70;99.90;;;;;;5064874;28;20874;-56
2023/08/06 12:00:02;;;;;;;3.10;2.73;;;21.70;99.90;;;;;;5060214;28;20638;-52
2023/08/06 12:02:34;;;;;;;2.90;2.60;;;21.70;99.90;;;;;;5064046;28;20462;-64
2023/08/06 12:05:01;;;;;;;3.40;2.73;;;21.70;99.90;;;;;;5060157;28;20804;-55
2023/08/06 12:07:30;;;;;;;2.77;2.53;;;21.70;99.90;;;;;;5064605;28;20875;-60
2023/08/06 12:09:57;;;;;;;2.70;2.27;;;21.70;99.90;;;;;;5060237;28;20518;-52
2023/08/06 12:12:24;;;;;;;5.30;2.47;;;21.70;99.90;;;;;;5061603;28;20468;-52
2023/08/06 12:14:51;;;;;;;3.20;2.50;;;21.70;99.90;;;;;;5067549;28;20580;-55
2023/08/06 12:17:18;;;;;;;2.60;2.30;;;21.70;99.90;;;;;;5064708;28;20463;-54
2023/08/06 12:19:47;;;;;;;3.83;2.70;;;21.70;99.90;;;;;;5065177;28;20447;-60
2023/08/06 12:22:14;;;;;;;3.70;2.63;;;21.70;99.90;;;;;;5067406;28;20583;-57
2023/08/06 12:24:42;;;;;;;2.47;2.10;;;21.70;99.90;;;;;;5068512;28;20437;-57
2023/08/06 12:27:09;;;;;;;4.03;2.57;;;21.70;99.90;;;;;;5064748;28;20464;-59
2023/08/06 12:29:36;;;;;;;2.30;2.10;;;21.70;99.90;;;;;;5061997;28;20464;-60
2023/08/06 12:32:04;;;;;;;2.93;1.80;;;21.70;99.90;;;;;;5061042;28;20483;-56
2023/08/06 12:34:30;;;;;;;2.50;2.17;;;21.70;99.90;;;;;;5060156;28;20527;-57
2023/08/06 12:36:57;;;;;;;3.00;2.70;;;21.70;99.90;;;;;;5063849;28;20467;-55
2023/08/06 12:39:24;;;;;;;4.20;2.63;;;21.70;99.90;;;;;;5066566;28;20460;-58